Terminal Aerodrome Forecast
Issued by NWS Buffalo, NY

Home | Current Version | Previous Version | Text Only | Print | Product List | Glossary On
Versions: 1 2 3 4 5 6 7 8 9 10 11 12 13 14 15 16 17 18 19 20 21 22 23 24 25 26
000
FTUS41 KBUF 231136
TAFROC
TAF
KROC 231136Z 2312/2412 23005KT P6SM SKC
     FM231500 26008KT P6SM FEW250
     FM231800 26010G18KT P6SM FEW250
     FM232200 25010KT P6SM FEW250
     FM240600 22008KT P6SM FEW250=

USA.gov is the U.S. government's official web portal to all federal, state and local government web resources and services.